Harwood, MO (64750)

2:49 PM CST on November 27, 2014 (GMT -0600)
Vernon Co. EOC | Change Station
CLOSE
Current Station
Personal Weather Station
Location: Nevada, MO
Elevation: 900 ft
Nearby Weather Stations

Elev 900 ft 37.84 °N, 94.35 °W | Updated 1 minute ago

Clear
Clear
39.4 °F
Feels Like 39 °F
N
2.0
Wind Variable Wind from SSW
Gusts 3.0 mph

Today
High -- | Low -- °F
--% Chance of Precip.
Yesterday
High -- | Low -- °F
Precip. -- in
7:09 AM 4:58 PM
Waxing Crescent, 32% visible
Pressure 30.45 in
Visibility 9.0 miles
Clouds Clear
Windchill 39 °F
Dew Point 23 °F
Humidity 51%
Rainfall 0.00 in
Snow Depth Not available.
UV 2 out of 12
Pollen .90 out of 12
Air Quality Not available.
Flu Activity Not available.
METAR KGLY 272035Z AUTO 19004KT 9SM CLR 03/M03 A3045 RMK AO2

More Conditions Fewer Conditions

Pressure 30.45 in
Visibility 9.0 miles
Clouds Clear
Windchill 39 °F
Dew Point 23 °F
Humidity 51%
Rainfall 0.00 in
Snow Depth Not available.
UV 2 out of 12
Pollen .90 out of 12
Air Quality Not available.
Flu Activity Not available.
METAR KGLY 272035Z AUTO 19004KT 9SM CLR 03/M03 A3045 RMK AO2

More Conditions Fewer Conditions

10-Day Weather Forecast

Almanac

Astronomy

Nov. 27, 2014 Rise Set
Actual Time
Civil Twilight
Nautical Twilight
Astronomical Twilight
Moon
Length of Visible Light
Length of Day
Tomorrow will be .
, % of the Moon is Illuminated

Today's Extremes

State Highs State Lows

Community

WunderPhotos

Upload Photos

1,774,100 photos uploaded!

WunderBlogs® & News

Nearby

Air Quality

  Air Quality AQ Index Pollutant
Not available.

Snow Depth

Station Depth Elevation

Earthquake Activity

City Distance Mag. Time & Date
Minimum magnitude displayed is 2.5.

Coastal Water Temperatures

Place Temperature

Nearby Weather Stations